createdAt,value
2017-04-22T00:00:44.486Z,28.53
2017-04-22T00:01:54.801Z,28.72
2017-04-22T00:03:05.085Z,28.63
2017-04-22T00:04:14.996Z,28.82
2017-04-22T00:05:25.284Z,28.72
2017-04-22T00:06:35.252Z,28.82
2017-04-22T00:07:45.220Z,28.82
2017-04-22T00:08:55.183Z,28.82
2017-04-22T00:10:05.759Z,28.63
2017-04-22T00:11:16.035Z,28.72
2017-04-22T00:12:25.891Z,28.63
2017-04-22T00:13:36.177Z,28.63
2017-04-22T00:14:46.462Z,28.53
2017-04-22T00:15:56.994Z,28.44
2017-04-22T00:17:06.981Z,28.44
2017-04-22T00:18:16.951Z,28.53
2017-04-22T00:19:27.237Z,28.53
2017-04-22T00:20:37.221Z,28.44
2017-04-22T00:21:47.751Z,28.53
2017-04-22T00:22:57.720Z,28.63
2017-04-22T00:24:07.998Z,28.63
2017-04-22T00:25:18.291Z,28.53
2017-04-22T00:26:28.817Z,28.63
2017-04-22T00:27:39.030Z,27.95
2017-04-22T00:28:49.152Z,28.44
2017-04-22T00:29:59.178Z,28.63
2017-04-22T00:31:09.456Z,28.61
2017-04-22T00:32:19.414Z,28.71
2017-04-22T00:33:29.638Z,28.71
2017-04-22T00:34:39.631Z,28.71
2017-04-22T00:35:49.903Z,28.61
2017-04-22T00:36:59.860Z,28.71
2017-04-22T00:38:10.144Z,28.42
2017-04-22T00:39:20.747Z,28.63
2017-04-22T00:40:30.758Z,28.52
2017-04-22T00:41:41.036Z,28.23
2017-04-22T00:42:50.689Z,28.42
2017-04-22T00:44:01.003Z,28.15
2017-04-22T00:45:11.539Z,28.23
2017-04-22T00:46:21.816Z,28.15
2017-04-22T00:47:32.092Z,28.25
2017-04-22T00:48:42.368Z,28.15
2017-04-22T00:49:52.686Z,28.14
2017-04-22T00:51:03.222Z,28.15
2017-04-22T00:52:13.505Z,28.25
2017-04-22T00:53:23.474Z,28.23
2017-04-22T00:54:33.754Z,28.25
2017-04-22T00:55:44.034Z,28.05
2017-04-22T00:56:54.253Z,28.05
2017-04-22T00:58:04.530Z,27.86
2017-04-22T00:59:14.805Z,27.94
2017-04-22T01:00:25.102Z,27.94
2017-04-22T01:01:35.072Z,27.84
2017-04-22T01:02:45.607Z,27.84
2017-04-22T01:03:55.933Z,27.66
2017-04-22T01:05:06.471Z,27.84
2017-04-22T01:06:16.760Z,27.37
2017-04-22T01:07:27.049Z,27.66
2017-04-22T01:08:37.579Z,27.37
2017-04-22T01:09:47.867Z,27.84
2017-04-22T01:10:58.146Z,27.75
2017-04-22T01:12:08.422Z,27.94
2017-04-22T01:13:18.728Z,28.04
2017-04-22T01:14:28.954Z,27.84
2017-04-22T01:15:38.610Z,27.94
2017-04-22T01:16:48.887Z,27.94
2017-04-22T01:17:59.179Z,27.84
2017-04-22T01:19:09.535Z,27.94
2017-04-22T01:20:20.070Z,27.47
2017-04-22T01:21:30.353Z,27.56
2017-04-22T01:22:40.324Z,27.56
2017-04-22T01:23:50.618Z,27.47
2017-04-22T01:25:00.590Z,27.47
2017-04-22T01:26:11.119Z,27.94
2017-04-22T01:27:21.097Z,27.56
2017-04-22T01:28:31.381Z,27.37
2017-04-22T01:29:41.667Z,27.56
2017-04-22T01:30:51.944Z,27.47
2017-04-22T01:32:02.475Z,27.75
2017-04-22T01:33:12.450Z,27.56
2017-04-22T01:34:22.746Z,27.37
2017-04-22T01:35:32.723Z,27.94
2017-04-22T01:36:42.702Z,27.66
2017-04-22T01:37:52.925Z,27.84
2017-04-22T01:39:03.237Z,27.84
2017-04-22T01:40:13.713Z,27.56
2017-04-22T01:41:24.016Z,27.66
2017-04-22T01:42:33.982Z,27.64
2017-04-22T01:43:44.929Z,27.84
2017-04-22T01:44:55.211Z,27.56
2017-04-22T01:46:05.187Z,27.47
2017-04-22T01:47:15.150Z,27.36
2017-04-22T01:48:25.130Z,27.37
2017-04-22T01:49:35.661Z,27.56
2017-04-22T01:50:45.638Z,27.37
2017-04-22T01:51:55.916Z,27.56
2017-04-22T01:53:06.195Z,27.93
2017-04-22T01:54:16.482Z,27.55
2017-04-22T01:55:27.021Z,27.56
2017-04-22T01:56:36.682Z,27.55
2017-04-22T01:57:46.984Z,27.56
2017-04-22T01:58:56.962Z,27.55
2017-04-22T02:00:06.930Z,27.26
2017-04-22T02:01:17.487Z,27.47
2017-04-22T02:02:27.775Z,27.27
2017-04-22T02:03:38.051Z,27.37
2017-04-22T02:04:48.322Z,27.27
2017-04-22T02:05:58.600Z,26.98
2017-04-22T02:07:08.862Z,27.27
2017-04-22T02:08:19.136Z,27.26
2017-04-22T02:09:28.801Z,27.27
2017-04-22T02:10:39.078Z,27.27
2017-04-22T02:11:49.365Z,27.47
2017-04-22T02:12:59.576Z,27.36
2017-04-22T02:14:09.857Z,27.55
2017-04-22T02:15:19.828Z,27.73
2017-04-22T02:16:30.108Z,27.64
2017-04-22T02:17:40.081Z,27.16
2017-04-22T02:18:50.703Z,27.26
2017-04-22T02:20:01.082Z,26.87
2017-04-22T02:21:11.528Z,27.16
2017-04-22T02:22:21.504Z,27.45
2017-04-22T02:23:31.780Z,27.36
2017-04-22T02:24:42.306Z,27.06
2017-04-22T02:25:52.579Z,27.26
2017-04-22T02:27:02.248Z,27.26
2017-04-22T02:28:11.920Z,27.16
2017-04-22T02:29:22.222Z,27.06
2017-04-22T02:30:32.442Z,26.97
2017-04-22T02:31:42.721Z,26.97
2017-04-22T02:32:52.689Z,26.87
2017-04-22T02:34:02.980Z,27.16
2017-04-22T02:35:13.260Z,27.36
2017-04-22T02:36:23.784Z,27.16
2017-04-22T02:37:34.064Z,27.26
2017-04-22T02:38:44.349Z,27.45
2017-04-22T02:39:54.628Z,27.26
2017-04-22T02:41:04.900Z,27.16
2017-04-22T02:42:15.482Z,27.06
2017-04-22T02:43:25.762Z,27.26
2017-04-22T02:44:36.048Z,27.16
2017-04-22T02:45:46.326Z,27.26
2017-04-22T02:46:56.604Z,27.45
2017-04-22T02:48:06.872Z,27.45
2017-04-22T02:49:17.156Z,27.36
2017-04-22T02:50:27.451Z,27.06
2017-04-22T02:51:37.743Z,26.87
2017-04-22T02:52:48.021Z,27.06
2017-04-22T02:53:58.559Z,26.87
2017-04-22T02:55:08.086Z,27.06
2017-04-22T02:56:18.649Z,27.06
2017-04-22T02:57:29.091Z,26.97
2017-04-22T02:58:39.455Z,27.06
2017-04-22T02:59:49.987Z,26.97
2017-04-22T03:01:00.009Z,26.78
2017-04-22T03:02:10.280Z,26.78
2017-04-22T03:03:20.569Z,26.78
2017-04-22T03:04:30.845Z,26.68
2017-04-22T03:05:41.418Z,27.16
2017-04-22T03:06:51.690Z,26.87
2017-04-22T03:08:01.661Z,27.06
2017-04-22T03:09:11.640Z,27.06
2017-04-22T03:10:21.927Z,27.06
2017-04-22T03:11:32.460Z,26.68
2017-04-22T03:12:42.745Z,26.68
2017-04-22T03:13:53.037Z,26.68
2017-04-22T03:15:02.996Z,26.78
2017-04-22T03:16:13.278Z,26.78
2017-04-22T03:17:23.862Z,26.78
2017-04-22T03:18:33.841Z,26.68
2017-04-22T03:19:44.120Z,26.68
2017-04-22T03:20:54.398Z,26.68
2017-04-22T03:22:04.055Z,26.87
2017-04-22T03:23:14.266Z,26.78
2017-04-22T03:24:24.243Z,26.78
2017-04-22T03:25:34.535Z,26.68
2017-04-22T03:26:44.497Z,26.78
2017-04-22T03:27:54.456Z,26.78
2017-04-22T03:29:05.006Z,26.78
2017-04-22T03:30:15.695Z,26.59
2017-04-22T03:31:25.671Z,26.59
2017-04-22T03:32:35.643Z,26.68
2017-04-22T03:33:45.613Z,26.59
2017-04-22T03:34:55.517Z,26.68
2017-04-22T03:36:05.479Z,26.49
2017-04-22T03:37:15.755Z,26.39
2017-04-22T03:38:25.727Z,26.39
2017-04-22T03:39:36.005Z,26.68
2017-04-22T03:40:46.537Z,26.48
2017-04-22T03:41:56.834Z,26.57
2017-04-22T03:43:07.107Z,26.78
2017-04-22T03:44:17.400Z,26.48
2017-04-22T03:45:27.686Z,26.48
2017-04-22T03:46:38.207Z,26.57
2017-04-22T03:47:48.547Z,26.67
2017-04-22T03:48:58.650Z,26.67
2017-04-22T03:50:08.940Z,26.86
2017-04-22T03:51:19.213Z,26.59
2017-04-22T03:52:29.483Z,26.57
2017-04-22T03:53:39.447Z,26.48
2017-04-22T03:54:49.416Z,26.67
2017-04-22T03:55:59.382Z,26.38
2017-04-22T03:57:09.659Z,26.28
2017-04-22T03:58:19.871Z,26.48
2017-04-22T03:59:29.848Z,26.48
2017-04-22T04:00:39.882Z,26.39
2017-04-22T04:01:50.164Z,26.59
2017-04-22T04:03:00.534Z,26.49
2017-04-22T04:04:11.073Z,26.59
2017-04-22T04:05:21.370Z,26.39
2017-04-22T04:06:31.640Z,26.1
2017-04-22T04:07:42.216Z,25.72
2017-04-22T04:08:52.182Z,25.62
2017-04-22T04:10:02.758Z,25.92
2017-04-22T04:11:13.060Z,25.72
2017-04-22T04:12:22.719Z,26.1
2017-04-22T04:13:33.001Z,25.92
2017-04-22T04:14:42.348Z,25.92
2017-04-22T04:15:52.573Z,26.01
2017-04-22T04:17:03.044Z,25.62
2017-04-22T04:18:13.018Z,25.53
2017-04-22T04:19:23.303Z,25.43
2017-04-22T04:20:33.582Z,25.43
2017-04-22T04:21:44.124Z,25.24
2017-04-22T04:22:54.095Z,25.05
2017-04-22T04:24:04.375Z,25.05
2017-04-22T04:25:14.652Z,25.15
2017-04-22T04:26:24.620Z,25.05
2017-04-22T04:27:35.364Z,25.05
2017-04-22T04:28:45.658Z,25.34
2017-04-22T04:29:55.620Z,25.34
2017-04-22T04:31:05.591Z,24.86
2017-04-22T04:32:15.558Z,25.34
2017-04-22T04:33:26.078Z,25.24
2017-04-22T04:34:36.356Z,24.86
2017-04-22T04:35:46.635Z,24.76
2017-04-22T04:36:56.606Z,24.76
2017-04-22T04:38:06.899Z,24.66
2017-04-22T04:39:17.132Z,24.95
2017-04-22T04:40:27.406Z,24.76
2017-04-22T04:41:37.379Z,25.15
2017-04-22T04:42:47.657Z,25.15
2017-04-22T04:43:57.624Z,24.95
2017-04-22T04:45:08.153Z,24.95
2017-04-22T04:46:18.120Z,24.86
2017-04-22T04:47:28.397Z,24.86
2017-04-22T04:48:38.663Z,24.86
2017-04-22T04:49:49.047Z,24.95
2017-04-22T04:50:59.597Z,24.86
2017-04-22T04:52:09.780Z,24.76
2017-04-22T04:53:20.011Z,24.76
2017-04-22T04:54:30.310Z,24.66
2017-04-22T04:55:40.610Z,24.76
2017-04-22T04:56:50.830Z,24.38
2017-04-22T04:58:00.487Z,24.48
2017-04-22T04:59:10.454Z,24.38
2017-04-22T05:00:20.125Z,24.38
2017-04-22T05:01:30.418Z,24.66
2017-04-22T05:02:40.637Z,24.38
2017-04-22T05:03:50.947Z,24.38
2017-04-22T05:05:01.230Z,24.48
2017-04-22T05:06:11.510Z,24.19
2017-04-22T05:07:21.777Z,24.28
2017-04-22T05:08:32.734Z,24.48
2017-04-22T05:09:43.021Z,24.48
2017-04-22T05:10:53.144Z,24.38
2017-04-22T05:12:03.432Z,24.38
2017-04-22T05:13:13.712Z,24.48
2017-04-22T05:14:24.272Z,24.48
2017-04-22T05:15:34.545Z,24.28
2017-04-22T05:16:44.517Z,24.48
2017-04-22T05:17:54.796Z,24.38
2017-04-22T05:19:05.075Z,23.9
2017-04-22T05:20:15.600Z,23.99
2017-04-22T05:21:25.885Z,23.99
2017-04-22T05:22:36.169Z,24.38
2017-04-22T05:23:46.472Z,24.48
2017-04-22T05:24:56.762Z,24.57
2017-04-22T05:26:07.389Z,24.48
2017-04-22T05:27:17.668Z,24.28
2017-04-22T05:28:27.955Z,24.48
2017-04-22T05:29:38.076Z,24.28
2017-04-22T05:30:48.391Z,24.28
2017-04-22T05:31:58.607Z,24.09
2017-04-22T05:33:08.678Z,24.09
2017-04-22T05:34:18.967Z,24.09
2017-04-22T05:35:29.240Z,24.19
2017-04-22T05:36:39.215Z,24.09
2017-04-22T05:37:49.460Z,23.99
2017-04-22T05:38:59.762Z,24.28
2017-04-22T05:40:10.052Z,23.9
2017-04-22T05:41:20.024Z,24.09
2017-04-22T05:42:29.993Z,23.99
2017-04-22T05:43:40.510Z,24.38
2017-04-22T05:44:50.491Z,23.99
2017-04-22T05:46:00.453Z,24.28
2017-04-22T05:47:10.430Z,24.19
2017-04-22T05:48:20.706Z,24.38
2017-04-22T05:49:31.360Z,24.38
2017-04-22T05:50:41.646Z,24.28
2017-04-22T05:51:51.625Z,24.19
2017-04-22T05:53:01.909Z,24.09
2017-04-22T05:54:11.872Z,23.99
2017-04-22T05:55:22.096Z,23.9
2017-04-22T05:56:32.372Z,24.19
2017-04-22T05:57:42.651Z,24.38
2017-04-22T05:58:52.946Z,24.2
2017-04-22T06:00:02.923Z,24.19
2017-04-22T06:01:13.455Z,23.8
2017-04-22T06:02:23.718Z,24.28
2017-04-22T06:03:34.279Z,24.28
2017-04-22T06:04:44.627Z,23.8
2017-04-22T06:05:54.904Z,23.99
2017-04-22T06:07:05.123Z,23.99
2017-04-22T06:08:15.406Z,23.99
2017-04-22T06:09:25.372Z,24.01
2017-04-22T06:10:35.369Z,24.2
2017-04-22T06:11:45.645Z,24.01
2017-04-22T06:12:55.550Z,23.99
2017-04-22T06:14:05.841Z,23.91
2017-04-22T06:15:16.131Z,24.01
2017-04-22T06:16:26.210Z,23.91
2017-04-22T06:17:36.480Z,23.91
2017-04-22T06:18:47.033Z,23.82
2017-04-22T06:19:57.001Z,23.82
2017-04-22T06:21:06.664Z,23.72
2017-04-22T06:22:16.945Z,23.72
2017-04-22T06:23:27.221Z,23.72
2017-04-22T06:24:37.762Z,23.82
2017-04-22T06:25:47.738Z,23.82
2017-04-22T06:26:58.026Z,23.82
2017-04-22T06:28:07.673Z,23.33
2017-04-22T06:29:17.651Z,23.33
2017-04-22T06:30:27.609Z,23.14
2017-04-22T06:31:37.920Z,23.24
2017-04-22T06:32:48.266Z,23.24
2017-04-22T06:33:58.555Z,23.24
2017-04-22T06:35:08.841Z,23.05
2017-04-22T06:36:19.131Z,22.95
2017-04-22T06:37:29.502Z,23.05
2017-04-22T06:38:39.643Z,22.95
2017-04-22T06:39:49.688Z,22.96
2017-04-22T06:40:59.965Z,23.14
2017-04-22T06:42:10.500Z,22.85
2017-04-22T06:43:20.462Z,22.86
2017-04-22T06:44:30.747Z,22.66
2017-04-22T06:45:40.852Z,22.85
2017-04-22T06:46:51.135Z,22.86
2017-04-22T06:48:01.672Z,22.77
2017-04-22T06:49:11.956Z,22.77
2017-04-22T06:50:22.242Z,22.77
2017-04-22T06:51:32.541Z,22.38
2017-04-22T06:52:42.832Z,22.67
2017-04-22T06:53:53.058Z,22.77
2017-04-22T06:55:02.739Z,22.67
2017-04-22T06:56:13.064Z,22.86
2017-04-22T06:57:23.032Z,22.48
2017-04-22T06:58:33.303Z,22.38
2017-04-22T06:59:43.578Z,22.77
2017-04-22T07:00:53.544Z,22.67
2017-04-22T07:02:03.851Z,22.67
2017-04-22T07:03:13.518Z,22.58
2017-04-22T07:04:23.822Z,22.67
2017-04-22T07:05:34.408Z,22.58
2017-04-22T07:06:44.692Z,22.09
2017-04-22T07:07:54.660Z,22.38
2017-04-22T07:09:04.642Z,22
2017-04-22T07:10:14.946Z,22.38
2017-04-22T07:11:25.488Z,22.48
2017-04-22T07:12:35.770Z,22.48
2017-04-22T07:13:45.736Z,22.38
2017-04-22T07:14:56.119Z,22.48
2017-04-22T07:16:06.417Z,22.67
2017-04-22T07:17:17.173Z,22.38
2017-04-22T07:18:27.155Z,22.48
2017-04-22T07:19:37.776Z,22.47
2017-04-22T07:20:48.058Z,22.58
2017-04-22T07:21:58.508Z,22.56
2017-04-22T07:23:08.433Z,22.58
2017-04-22T07:24:18.710Z,21.99
2017-04-22T07:25:29.106Z,21.99
2017-04-22T07:26:39.391Z,22.08
2017-04-22T07:27:49.675Z,22.08
2017-04-22T07:28:59.902Z,22.18
2017-04-22T07:30:09.253Z,22.08
2017-04-22T07:31:19.523Z,22.28
2017-04-22T07:32:29.493Z,22.18
2017-04-22T07:33:39.475Z,22.08
2017-04-22T07:34:49.709Z,21.99
2017-04-22T07:36:00.021Z,22.08
2017-04-22T07:37:09.987Z,21.89
2017-04-22T07:38:19.964Z,21.99
2017-04-22T07:39:30.260Z,21.99
2017-04-22T07:40:40.478Z,21.99
2017-04-22T07:41:50.469Z,21.89
2017-04-22T07:43:00.447Z,22.28
2017-04-22T07:44:10.726Z,21.89
2017-04-22T07:45:21.024Z,21.99
2017-04-22T07:46:31.548Z,21.8
2017-04-22T07:47:41.206Z,22.28
2017-04-22T07:48:51.378Z,21.99
2017-04-22T07:50:01.681Z,22.18
2017-04-22T07:51:12.090Z,21.89
2017-04-22T07:52:26.688Z,21.8
2017-04-22T07:53:36.657Z,21.99
2017-04-22T07:54:46.936Z,21.99
2017-04-22T07:55:57.223Z,21.89
2017-04-22T07:57:07.503Z,21.99
2017-04-22T07:58:17.419Z,22.28
2017-04-22T07:59:27.714Z,21.8
2017-04-22T08:00:37.994Z,21.89
2017-04-22T08:01:48.282Z,21.89
2017-04-22T08:02:58.567Z,22.08
2017-04-22T08:04:08.793Z,22.28
2017-04-22T08:05:19.087Z,21.99
2017-04-22T08:06:29.064Z,21.51
2017-04-22T08:07:39.043Z,21.8
2017-04-22T08:08:49.012Z,22.28
2017-04-22T08:09:59.555Z,22.08
2017-04-22T08:11:09.529Z,21.89
2017-04-22T08:12:19.193Z,21.89
2017-04-22T08:13:29.490Z,21.89
2017-04-22T08:14:39.776Z,21.7
2017-04-22T08:15:50.061Z,21.61
2017-04-22T08:17:00.358Z,21.51
2017-04-22T08:18:10.638Z,21.89
2017-04-22T08:19:20.931Z,21.8
2017-04-22T08:20:31.321Z,21.7
2017-04-22T08:21:41.862Z,21.7
2017-04-22T08:22:52.364Z,21.89
2017-04-22T08:24:02.341Z,21.89
2017-04-22T08:25:12.010Z,21.89
2017-04-22T08:26:22.299Z,21.61
2017-04-22T08:27:32.527Z,21.7
2017-04-22T08:28:42.821Z,21.89
2017-04-22T08:29:52.800Z,21.7
2017-04-22T08:31:03.088Z,21.51
2017-04-22T08:32:13.062Z,21.61
2017-04-22T08:33:23.614Z,21.61
2017-04-22T08:34:33.909Z,21.61
2017-04-22T08:35:44.186Z,21.61
2017-04-22T08:36:54.475Z,21.61
2017-04-22T08:38:04.754Z,21.7
2017-04-22T08:39:15.041Z,21.7
2017-04-22T08:40:25.325Z,21.51
2017-04-22T08:41:35.624Z,21.7
2017-04-22T08:42:45.912Z,21.7
2017-04-22T08:43:56.201Z,21.8
2017-04-22T08:45:06.116Z,21.7
2017-04-22T08:46:15.780Z,21.61
2017-04-22T08:47:25.758Z,21.7
2017-04-22T08:48:35.734Z,21.61
2017-04-22T08:49:46.025Z,21.7
2017-04-22T08:50:58.901Z,21.61
2017-04-22T08:52:09.194Z,21.51
2017-04-22T08:53:19.164Z,21.7
2017-04-22T08:54:29.453Z,21.61
2017-04-22T08:55:39.746Z,21.7
2017-04-22T08:56:50.324Z,21.8
2017-04-22T08:58:00.605Z,21.51
2017-04-22T08:59:10.901Z,21.7
2017-04-22T09:00:21.190Z,21.41
2017-04-22T09:01:30.858Z,21.12
2017-04-22T09:02:41.100Z,21.22
2017-04-22T09:03:51.388Z,21.22
2017-04-22T09:05:01.680Z,21.32
2017-04-22T09:06:11.669Z,21.12
2017-04-22T09:07:21.982Z,21.03
2017-04-22T09:08:32.523Z,21.22
2017-04-22T09:09:42.831Z,20.74
2017-04-22T09:10:52.817Z,21.22
2017-04-22T09:12:03.111Z,20.64
2017-04-22T09:13:13.105Z,20.74
2017-04-22T09:14:23.641Z,21.03
2017-04-22T09:15:33.918Z,21.41
2017-04-22T09:16:43.587Z,21.32
2017-04-22T09:17:53.883Z,21.12
2017-04-22T09:19:04.188Z,21.12
2017-04-22T09:20:14.748Z,21.12
2017-04-22T09:21:25.050Z,20.84
2017-04-22T09:22:35.353Z,20.74
2017-04-22T09:23:45.674Z,20.84
2017-04-22T09:24:55.659Z,20.64
2017-04-22T09:26:05.923Z,20.84
2017-04-22T09:27:16.245Z,20.74
2017-04-22T09:28:26.545Z,20.84
2017-04-22T09:29:36.845Z,20.84
2017-04-22T09:30:47.150Z,20.84
2017-04-22T09:31:57.727Z,21.03
2017-04-22T09:33:08.043Z,20.84
2017-04-22T09:34:18.071Z,20.84
2017-04-22T09:35:28.363Z,20.64
2017-04-22T09:36:38.345Z,21.12
2017-04-22T09:37:48.957Z,21.03
2017-04-22T09:38:59.263Z,20.74
2017-04-22T09:40:09.567Z,20.94
2017-04-22T09:41:19.862Z,20.94
2017-04-22T09:42:30.183Z,20.64
2017-04-22T09:43:40.430Z,20.55
2017-04-22T09:44:50.737Z,20.26
2017-04-22T09:46:00.821Z,20.74
2017-04-22T09:47:10.850Z,20.55
2017-04-22T09:48:20.853Z,20.45
2017-04-22T09:49:30.788Z,20.17
2017-04-22T09:50:40.482Z,20.36
2017-04-22T09:51:50.774Z,20.74
2017-04-22T09:53:00.543Z,20.55
2017-04-22T09:54:10.874Z,20.74
2017-04-22T09:55:21.439Z,20.17
2017-04-22T09:56:31.436Z,20.26
2017-04-22T09:57:41.417Z,20.45
2017-04-22T09:58:51.717Z,20.17
2017-04-22T10:00:02.049Z,20.36
2017-04-22T10:01:12.614Z,20.36
2017-04-22T10:02:22.609Z,20.36
2017-04-22T10:03:32.920Z,20.17
2017-04-22T10:04:42.594Z,20.26
2017-04-22T10:05:52.593Z,20.26
2017-04-22T10:07:02.539Z,20.26
2017-04-22T10:08:12.831Z,20.55
2017-04-22T10:09:23.140Z,20.26
2017-04-22T10:10:33.115Z,20.36
2017-04-22T10:11:43.404Z,20.36
2017-04-22T10:12:54.064Z,20.26
2017-04-22T10:14:04.357Z,20.45
2017-04-22T10:15:14.641Z,20.17
2017-04-22T10:16:25.057Z,20.26
2017-04-22T10:17:35.725Z,20.07
2017-04-22T10:18:46.029Z,20.26
2017-04-22T10:19:56.155Z,20.55
2017-04-22T10:21:05.512Z,20.26
2017-04-22T10:22:15.546Z,20.17
2017-04-22T10:23:25.681Z,20.45
2017-04-22T10:24:36.254Z,20.55
2017-04-22T10:25:46.253Z,20.55
2017-04-22T10:26:55.930Z,20.17
2017-04-22T10:28:06.260Z,20.26
2017-04-22T10:29:16.570Z,20.36
2017-04-22T10:30:26.851Z,20.36
2017-04-22T10:31:36.844Z,20.07
2017-04-22T10:32:47.189Z,19.59
2017-04-22T10:33:57.186Z,19.59
2017-04-22T10:35:07.491Z,19.88
2017-04-22T10:36:18.047Z,19.88
2017-04-22T10:37:28.355Z,19.59
2017-04-22T10:38:38.646Z,19.68
2017-04-22T10:39:48.967Z,19.59
2017-04-22T10:40:59.296Z,19.79
2017-04-22T10:42:09.861Z,19.59
2017-04-22T10:43:19.846Z,19.6
2017-04-22T10:44:30.139Z,19.68
2017-04-22T10:45:40.114Z,19.78
2017-04-22T10:46:50.410Z,19.5
2017-04-22T10:48:00.326Z,19.49
2017-04-22T10:49:10.307Z,19.6
2017-04-22T10:50:20.609Z,19.49
2017-04-22T10:51:30.912Z,19.49
2017-04-22T10:52:40.905Z,19.79
2017-04-22T10:53:51.439Z,19.7
2017-04-22T10:55:01.742Z,19.68
2017-04-22T10:56:11.422Z,19.79
2017-04-22T10:57:21.719Z,19.68
2017-04-22T10:58:32.014Z,19.78
2017-04-22T10:59:42.602Z,19.49
2017-04-22T11:00:52.896Z,19.6
2017-04-22T11:02:03.322Z,19.7
2017-04-22T11:03:13.309Z,19.79
2017-04-22T11:04:23.359Z,19.5
2017-04-22T11:05:33.601Z,19.21
2017-04-22T11:06:43.890Z,19.21
2017-04-22T11:07:53.867Z,19.12
2017-04-22T11:09:03.854Z,19.4
2017-04-22T11:10:13.839Z,19.6
2017-04-22T11:11:24.382Z,19.4
2017-04-22T11:12:34.872Z,19.4
2017-04-22T11:13:44.570Z,19.4
2017-04-22T11:14:54.547Z,19.7
2017-04-22T11:16:04.832Z,19.7
2017-04-22T11:17:15.385Z,19.7
2017-04-22T11:18:25.690Z,19.79
2017-04-22T11:19:35.977Z,19.4
2017-04-22T11:20:45.963Z,19.6
2017-04-22T11:21:56.269Z,19.7
2017-04-22T11:23:06.832Z,19.6
2017-04-22T11:24:16.806Z,19.5
2017-04-22T11:25:27.104Z,19.31
2017-04-22T11:26:37.451Z,19.4
2017-04-22T11:27:47.743Z,19.4
2017-04-22T11:28:57.995Z,19.5
2017-04-22T11:30:07.971Z,19.5
2017-04-22T11:31:18.253Z,19.6
2017-04-22T11:32:28.547Z,19.31
2017-04-22T11:33:38.527Z,19.4
2017-04-22T11:34:48.445Z,19.7
2017-04-22T11:35:58.735Z,19.79
2017-04-22T11:37:08.733Z,19.21
2017-04-22T11:38:19.030Z,19.31
2017-04-22T11:39:29.020Z,19.12
2017-04-22T11:40:39.580Z,19.12
2017-04-22T11:41:49.556Z,19.31
2017-04-22T11:42:59.214Z,19.4
2017-04-22T11:44:09.507Z,19.4
2017-04-22T11:45:19.810Z,19.12
2017-04-22T11:46:30.364Z,19.02
2017-04-22T11:47:40.787Z,19.12
2017-04-22T11:48:51.072Z,19.12
2017-04-22T11:50:01.390Z,19.02
2017-04-22T11:51:11.052Z,18.83
2017-04-22T11:52:21.286Z,19.12
2017-04-22T11:53:31.283Z,19.21
2017-04-22T11:54:41.566Z,19.21
2017-04-22T11:55:51.857Z,19.12
2017-04-22T11:57:01.517Z,19.12
2017-04-22T11:58:11.480Z,19.12
2017-04-22T11:59:21.792Z,19.21
2017-04-22T12:00:31.767Z,19.21
2017-04-22T12:01:42.060Z,19.02
2017-04-22T12:02:52.047Z,18.93
2017-04-22T12:04:02.584Z,18.93
2017-04-22T12:05:12.949Z,18.73
2017-04-22T12:06:22.309Z,18.83
2017-04-22T12:07:32.291Z,18.35
2017-04-22T12:08:42.276Z,18.44
2017-04-22T12:09:52.501Z,19.02
2017-04-22T12:11:02.501Z,18.93
2017-04-22T12:12:12.487Z,18.83
2017-04-22T12:13:22.776Z,18.83
2017-04-22T12:14:32.763Z,18.93
2017-04-22T12:15:42.680Z,18.54
2017-04-22T12:16:52.973Z,18.73
2017-04-22T12:18:02.942Z,19.02
2017-04-22T12:19:13.237Z,18.73
2017-04-22T12:20:23.273Z,18.83
2017-04-22T12:21:33.814Z,18.73
2017-04-22T12:22:43.163Z,19.02
2017-04-22T12:23:53.443Z,18.73
2017-04-22T12:25:03.425Z,18.73
2017-04-22T12:26:13.391Z,18.73
2017-04-22T12:27:23.623Z,18.35
2017-04-22T12:28:33.895Z,18.44
2017-04-22T12:29:44.203Z,18.54
2017-04-22T12:30:54.489Z,18.63
2017-04-22T12:32:04.474Z,18.44
2017-04-22T12:33:14.745Z,18.54
2017-04-22T12:34:25.036Z,18.35
2017-04-22T12:35:35.002Z,18.63
2017-04-22T12:36:45.286Z,18.54
2017-04-22T12:37:55.619Z,18.54
2017-04-22T12:39:05.925Z,18.63
2017-04-22T12:40:15.591Z,18.63
2017-04-22T12:41:25.578Z,18.54
2017-04-22T12:42:35.571Z,18.54
2017-04-22T12:43:45.573Z,18.54
2017-04-22T12:44:56.177Z,18.44
2017-04-22T12:46:06.482Z,18.63
2017-04-22T12:47:16.782Z,18.35
2017-04-22T12:48:27.086Z,18.44
2017-04-22T12:49:37.391Z,18.35
2017-04-22T12:50:47.928Z,18.35
2017-04-22T12:51:57.919Z,18.26
2017-04-22T12:53:07.902Z,18.54
2017-04-22T12:54:18.016Z,18.44
2017-04-22T12:55:27.993Z,18.35
2017-04-22T12:56:38.535Z,18.44
2017-04-22T12:57:48.690Z,18.54
2017-04-22T12:58:59.203Z,18.54
2017-04-22T13:00:09.500Z,18.44
2017-04-22T13:01:19.188Z,18.26
2017-04-22T13:02:29.787Z,18.35
2017-04-22T13:03:40.097Z,18.35
2017-04-22T13:04:50.396Z,18.35
2017-04-22T13:06:00.382Z,18.26
2017-04-22T13:07:10.710Z,18.35
2017-04-22T13:08:21.265Z,18.26
2017-04-22T13:09:30.932Z,18.35
2017-04-22T13:10:40.916Z,18.54
2017-04-22T13:11:51.205Z,18.44
2017-04-22T13:13:01.252Z,18.54
2017-04-22T13:14:11.683Z,18.63
2017-04-22T13:15:21.710Z,18.63
2017-04-22T13:16:31.700Z,18.44
2017-04-22T13:17:42.048Z,18.63
2017-04-22T13:18:52.357Z,18.44
2017-04-22T13:20:02.907Z,18.54
2017-04-22T13:21:13.219Z,18.44
2017-04-22T13:22:23.196Z,18.54
2017-04-22T13:23:33.500Z,18.44
2017-04-22T13:24:43.482Z,18.44
2017-04-22T13:25:53.729Z,18.63
2017-04-22T13:27:04.037Z,18.73
2017-04-22T13:28:14.363Z,18.83
2017-04-22T13:29:24.365Z,19.02
2017-04-22T13:30:34.666Z,18.73
2017-04-22T13:31:45.300Z,18.93
2017-04-22T13:32:55.296Z,18.83
2017-04-22T13:34:05.607Z,18.83
2017-04-22T13:35:15.926Z,19.02
2017-04-22T13:36:26.256Z,18.93
2017-04-22T13:37:36.180Z,19.02
2017-04-22T13:38:46.178Z,18.93
2017-04-22T13:39:56.576Z,19.21
2017-04-22T13:41:06.578Z,19.21
2017-04-22T13:42:16.886Z,19.5
2017-04-22T13:43:27.495Z,19.6
2017-04-22T13:44:37.495Z,19.7
2017-04-22T13:45:47.495Z,19.6
2017-04-22T13:46:57.507Z,19.89
2017-04-22T13:48:07.548Z,19.7
2017-04-22T13:49:18.160Z,19.89
2017-04-22T13:50:27.823Z,19.98
2017-04-22T13:51:37.827Z,20.08
2017-04-22T13:52:47.859Z,20.17
2017-04-22T13:53:57.872Z,20.47
2017-04-22T13:55:08.185Z,20.27
2017-04-22T13:56:18.496Z,20.37
2017-04-22T13:57:28.808Z,20.47
2017-04-22T13:58:39.138Z,20.17
2017-04-22T13:59:49.477Z,20.36
2017-04-22T14:00:59.780Z,20.65
2017-04-22T14:02:10.128Z,20.64
2017-04-22T14:03:20.446Z,20.55
2017-04-22T14:04:30.468Z,20.65
2017-04-22T14:05:40.773Z,20.65
2017-04-22T14:06:51.373Z,20.65
2017-04-22T14:08:01.707Z,20.55
2017-04-22T14:09:11.713Z,20.84
2017-04-22T14:10:21.726Z,20.94
2017-04-22T14:11:31.728Z,20.55
2017-04-22T14:12:42.357Z,20.45
2017-04-22T14:13:52.351Z,20.84
2017-04-22T14:15:02.706Z,20.94
2017-04-22T14:16:13.010Z,21.03
2017-04-22T14:17:23.152Z,20.84
2017-04-22T14:18:33.589Z,20.55
2017-04-22T14:19:43.915Z,20.55
2017-04-22T14:20:54.230Z,20.55
2017-04-22T14:22:04.535Z,20.64
2017-04-22T14:23:14.912Z,20.36
2017-04-22T14:24:25.165Z,20.94
2017-04-22T14:25:35.552Z,21.03
2017-04-22T14:26:45.617Z,21.22
2017-04-22T14:27:56.069Z,20.74
2017-04-22T14:29:05.758Z,21.03
2017-04-22T14:30:16.508Z,20.64
2017-04-22T14:31:26.239Z,20.94
2017-04-22T14:32:35.956Z,20.94
2017-04-22T14:33:46.274Z,20.74
2017-04-22T14:34:56.587Z,20.84
2017-04-22T14:36:07.023Z,20.74
2017-04-22T14:37:16.742Z,20.84
2017-04-22T14:38:27.077Z,21.03
2017-04-22T14:39:37.411Z,21.12
2017-04-22T14:40:47.722Z,21.22
2017-04-22T14:41:57.786Z,21.12
2017-04-22T14:43:07.481Z,21.22
2017-04-22T14:44:17.784Z,21.32
2017-04-22T14:45:28.138Z,21.41
2017-04-22T14:46:38.480Z,21.32
2017-04-22T14:47:49.015Z,21.22
2017-04-22T14:48:58.778Z,21.61
2017-04-22T14:50:09.113Z,21.22
2017-04-22T14:51:19.334Z,21.32
2017-04-22T14:52:29.646Z,21.32
2017-04-22T14:53:39.919Z,21.41
2017-04-22T14:54:50.231Z,21.32
2017-04-22T14:56:00.575Z,21.7
2017-04-22T14:57:10.558Z,21.51
2017-04-22T14:58:20.760Z,21.61
2017-04-22T14:59:32.330Z,21.7
2017-04-22T15:00:42.388Z,21.89
2017-04-22T15:01:52.863Z,21.61
2017-04-22T15:03:03.038Z,21.51
2017-04-22T15:04:13.853Z,21.8
2017-04-22T15:05:24.590Z,21.61
2017-04-22T15:06:34.824Z,21.41
2017-04-22T15:07:45.986Z,21.7